sensor_id;sensor_type;location;lat;lon;timestamp;P1;durP1;ratioP1;P2;durP2;ratioP2
7527;SDS011;3805;49.006;8.514;2023-12-29T00:00:06;5.07;;;4.67;;
7527;SDS011;3805;49.006;8.514;2023-12-29T00:02:36;5.33;;;4.20;;
7527;SDS011;3805;49.006;8.514;2023-12-29T00:05:04;5.50;;;5.10;;
7527;SDS011;3805;49.006;8.514;2023-12-29T00:07:33;5.53;;;5.03;;
7527;SDS011;3805;49.006;8.514;2023-12-29T00:10:02;5.10;;;4.63;;
7527;SDS011;3805;49.006;8.514;2023-12-29T00:12:36;4.50;;;4.20;;
7527;SDS011;3805;49.006;8.514;2023-12-29T00:15:06;4.90;;;4.47;;
7527;SDS011;3805;49.006;8.514;2023-12-29T00:17:35;5.80;;;4.57;;
7527;SDS011;3805;49.006;8.514;2023-12-29T00:20:07;4.80;;;4.40;;
7527;SDS011;3805;49.006;8.514;2023-12-29T00:22:38;5.07;;;4.67;;
7527;SDS011;3805;49.006;8.514;2023-12-29T00:25:06;5.17;;;4.77;;
7527;SDS011;3805;49.006;8.514;2023-12-29T00:27:35;5.50;;;5.10;;
7527;SDS011;3805;49.006;8.514;2023-12-29T00:30:06;5.47;;;5.00;;
7527;SDS011;3805;49.006;8.514;2023-12-29T00:32:36;6.00;;;5.40;;
7527;SDS011;3805;49.006;8.514;2023-12-29T00:35:04;5.13;;;4.73;;
7527;SDS011;3805;49.006;8.514;2023-12-29T00:37:32;6.37;;;4.90;;
7527;SDS011;3805;49.006;8.514;2023-12-29T00:40:03;5.77;;;5.20;;
7527;SDS011;3805;49.006;8.514;2023-12-29T00:42:34;5.70;;;5.20;;
7527;SDS011;3805;49.006;8.514;2023-12-29T00:45:03;6.10;;;5.60;;
7527;SDS011;3805;49.006;8.514;2023-12-29T00:47:34;6.50;;;5.37;;
7527;SDS011;3805;49.006;8.514;2023-12-29T00:50:03;6.90;;;6.30;;
7527;SDS011;3805;49.006;8.514;2023-12-29T00:52:31;5.63;;;5.20;;
7527;SDS011;3805;49.006;8.514;2023-12-29T00:55:00;6.07;;;5.47;;
7527;SDS011;3805;49.006;8.514;2023-12-29T00:57:29;5.77;;;5.27;;
7527;SDS011;3805;49.006;8.514;2023-12-29T00:59:59;5.80;;;5.30;;
7527;SDS011;3805;49.006;8.514;2023-12-29T01:02:28;5.77;;;5.37;;
7527;SDS011;3805;49.006;8.514;2023-12-29T01:04:57;5.50;;;5.00;;
7527;SDS011;3805;49.006;8.514;2023-12-29T01:07:26;6.07;;;5.20;;
7527;SDS011;3805;49.006;8.514;2023-12-29T01:09:55;6.00;;;5.60;;
7527;SDS011;3805;49.006;8.514;2023-12-29T01:12:23;6.23;;;5.50;;
7527;SDS011;3805;49.006;8.514;2023-12-29T01:14:51;5.97;;;5.40;;
7527;SDS011;3805;49.006;8.514;2023-12-29T01:17:20;8.77;;;5.13;;
7527;SDS011;3805;49.006;8.514;2023-12-29T01:19:49;6.10;;;5.60;;
7527;SDS011;3805;49.006;8.514;2023-12-29T01:22:18;5.60;;;5.20;;
7527;SDS011;3805;49.006;8.514;2023-12-29T01:24:47;4.80;;;4.50;;
7527;SDS011;3805;49.006;8.514;2023-12-29T01:27:18;5.93;;;5.43;;
7527;SDS011;3805;49.006;8.514;2023-12-29T01:29:46;6.47;;;5.80;;
7527;SDS011;3805;49.006;8.514;2023-12-29T01:32:14;5.80;;;5.30;;
7527;SDS011;3805;49.006;8.514;2023-12-29T01:34:43;6.30;;;5.80;;
7527;SDS011;3805;49.006;8.514;2023-12-29T01:37:11;6.30;;;5.70;;
7527;SDS011;3805;49.006;8.514;2023-12-29T01:39:43;6.70;;;6.10;;
7527;SDS011;3805;49.006;8.514;2023-12-29T01:42:11;5.77;;;5.27;;
7527;SDS011;3805;49.006;8.514;2023-12-29T01:44:40;5.37;;;4.93;;
7527;SDS011;3805;49.006;8.514;2023-12-29T01:47:10;6.27;;;5.60;;
7527;SDS011;3805;49.006;8.514;2023-12-29T01:49:41;7.67;;;5.50;;
7527;SDS011;3805;49.006;8.514;2023-12-29T01:52:11;6.20;;;5.67;;
7527;SDS011;3805;49.006;8.514;2023-12-29T01:54:41;6.33;;;5.77;;
7527;SDS011;3805;49.006;8.514;2023-12-29T01:57:12;6.03;;;5.43;;
7527;SDS011;3805;49.006;8.514;2023-12-29T01:59:40;5.67;;;5.27;;
7527;SDS011;3805;49.006;8.514;2023-12-29T02:02:08;5.93;;;4.80;;
7527;SDS011;3805;49.006;8.514;2023-12-29T02:04:37;7.20;;;6.00;;
7527;SDS011;3805;49.006;8.514;2023-12-29T02:07:06;6.60;;;6.10;;
7527;SDS011;3805;49.006;8.514;2023-12-29T02:09:35;5.60;;;5.10;;
7527;SDS011;3805;49.006;8.514;2023-12-29T02:12:05;7.60;;;7.00;;
7527;SDS011;3805;49.006;8.514;2023-12-29T02:14:34;5.90;;;5.50;;
7527;SDS011;3805;49.006;8.514;2023-12-29T02:17:05;6.67;;;6.03;;
7527;SDS011;3805;49.006;8.514;2023-12-29T02:19:38;5.90;;;5.40;;
7527;SDS011;3805;49.006;8.514;2023-12-29T02:22:08;6.00;;;5.57;;
7527;SDS011;3805;49.006;8.514;2023-12-29T02:24:39;6.50;;;5.50;;
7527;SDS011;3805;49.006;8.514;2023-12-29T02:27:23;6.67;;;5.90;;
7527;SDS011;3805;49.006;8.514;2023-12-29T02:30:08;5.97;;;5.43;;
7527;SDS011;3805;49.006;8.514;2023-12-29T02:32:41;5.40;;;4.90;;
7527;SDS011;3805;49.006;8.514;2023-12-29T02:35:12;6.53;;;6.03;;
7527;SDS011;3805;49.006;8.514;2023-12-29T02:37:42;6.30;;;5.50;;
7527;SDS011;3805;49.006;8.514;2023-12-29T02:40:11;6.10;;;5.57;;
7527;SDS011;3805;49.006;8.514;2023-12-29T02:42:45;8.43;;;6.93;;
7527;SDS011;3805;49.006;8.514;2023-12-29T02:45:14;6.13;;;5.53;;
7527;SDS011;3805;49.006;8.514;2023-12-29T02:47:45;6.73;;;5.10;;
7527;SDS011;3805;49.006;8.514;2023-12-29T02:50:14;5.33;;;4.87;;
7527;SDS011;3805;49.006;8.514;2023-12-29T02:52:42;6.23;;;5.60;;
7527;SDS011;3805;49.006;8.514;2023-12-29T02:55:11;5.70;;;5.20;;
7527;SDS011;3805;49.006;8.514;2023-12-29T02:57:39;6.43;;;5.83;;
7527;SDS011;3805;49.006;8.514;2023-12-29T03:00:28;5.60;;;5.10;;
7527;SDS011;3805;49.006;8.514;2023-12-29T03:02:56;5.80;;;4.90;;
7527;SDS011;3805;49.006;8.514;2023-12-29T03:05:25;5.20;;;4.70;;
7527;SDS011;3805;49.006;8.514;2023-12-29T03:07:53;5.83;;;5.20;;
7527;SDS011;3805;49.006;8.514;2023-12-29T03:10:21;6.03;;;5.63;;
7527;SDS011;3805;49.006;8.514;2023-12-29T03:12:50;5.80;;;4.70;;
7527;SDS011;3805;49.006;8.514;2023-12-29T03:15:18;4.23;;;3.93;;
7527;SDS011;3805;49.006;8.514;2023-12-29T03:17:48;4.80;;;4.40;;
7527;SDS011;3805;49.006;8.514;2023-12-29T03:20:16;4.93;;;4.47;;
7527;SDS011;3805;49.006;8.514;2023-12-29T03:22:44;5.03;;;4.53;;
7527;SDS011;3805;49.006;8.514;2023-12-29T03:25:13;4.57;;;4.23;;
7527;SDS011;3805;49.006;8.514;2023-12-29T03:27:41;4.40;;;4.00;;
7527;SDS011;3805;49.006;8.514;2023-12-29T03:30:10;4.57;;;4.07;;
7527;SDS011;3805;49.006;8.514;2023-12-29T03:32:39;7.30;;;5.03;;
7527;SDS011;3805;49.006;8.514;2023-12-29T03:35:09;5.00;;;4.60;;
7527;SDS011;3805;49.006;8.514;2023-12-29T03:37:37;5.87;;;5.37;;
7527;SDS011;3805;49.006;8.514;2023-12-29T03:40:06;5.23;;;4.73;;
7527;SDS011;3805;49.006;8.514;2023-12-29T03:42:35;4.80;;;4.40;;
7527;SDS011;3805;49.006;8.514;2023-12-29T03:45:04;5.43;;;4.93;;
7527;SDS011;3805;49.006;8.514;2023-12-29T03:47:33;5.33;;;4.83;;
7527;SDS011;3805;49.006;8.514;2023-12-29T03:50:03;4.33;;;4.00;;
7527;SDS011;3805;49.006;8.514;2023-12-29T03:52:33;7.10;;;5.20;;
7527;SDS011;3805;49.006;8.514;2023-12-29T03:55:01;6.20;;;5.60;;
7527;SDS011;3805;49.006;8.514;2023-12-29T03:57:30;8.47;;;5.40;;
7527;SDS011;3805;49.006;8.514;2023-12-29T03:59:59;5.33;;;4.93;;
7527;SDS011;3805;49.006;8.514;2023-12-29T04:02:27;5.23;;;4.70;;
7527;SDS011;3805;49.006;8.514;2023-12-29T04:04:56;4.87;;;4.47;;
7527;SDS011;3805;49.006;8.514;2023-12-29T04:07:24;6.27;;;5.67;;
7527;SDS011;3805;49.006;8.514;2023-12-29T04:09:54;6.57;;;4.90;;
7527;SDS011;3805;49.006;8.514;2023-12-29T04:12:22;5.57;;;4.93;;
7527;SDS011;3805;49.006;8.514;2023-12-29T04:14:50;5.80;;;5.00;;
7527;SDS011;3805;49.006;8.514;2023-12-29T04:17:18;5.63;;;5.13;;
7527;SDS011;3805;49.006;8.514;2023-12-29T04:19:47;5.30;;;4.90;;
7527;SDS011;3805;49.006;8.514;2023-12-29T04:22:15;6.00;;;5.50;;
7527;SDS011;3805;49.006;8.514;2023-12-29T04:24:43;6.53;;;5.90;;
7527;SDS011;3805;49.006;8.514;2023-12-29T04:27:13;6.40;;;5.80;;
7527;SDS011;3805;49.006;8.514;2023-12-29T04:29:43;8.97;;;7.60;;
7527;SDS011;3805;49.006;8.514;2023-12-29T04:32:11;6.83;;;6.33;;
7527;SDS011;3805;49.006;8.514;2023-12-29T04:34:39;5.97;;;5.47;;
7527;SDS011;3805;49.006;8.514;2023-12-29T04:37:08;5.70;;;5.30;;
7527;SDS011;3805;49.006;8.514;2023-12-29T04:39:36;5.87;;;5.37;;
7527;SDS011;3805;49.006;8.514;2023-12-29T04:42:05;5.60;;;5.20;;
7527;SDS011;3805;49.006;8.514;2023-12-29T04:44:35;5.65;;;5.20;;
7527;SDS011;3805;49.006;8.514;2023-12-29T04:47:03;5.20;;;4.80;;
7527;SDS011;3805;49.006;8.514;2023-12-29T04:49:31;5.73;;;5.23;;
7527;SDS011;3805;49.006;8.514;2023-12-29T04:52:00;5.23;;;4.83;;
7527;SDS011;3805;49.006;8.514;2023-12-29T04:54:28;5.87;;;5.37;;
7527;SDS011;3805;49.006;8.514;2023-12-29T04:56:56;5.13;;;4.73;;
7527;SDS011;3805;49.006;8.514;2023-12-29T04:59:25;6.10;;;5.50;;
7527;SDS011;3805;49.006;8.514;2023-12-29T05:01:54;5.97;;;5.47;;
7527;SDS011;3805;49.006;8.514;2023-12-29T05:04:23;4.90;;;4.43;;
7527;SDS011;3805;49.006;8.514;2023-12-29T05:06:51;5.50;;;5.00;;
7527;SDS011;3805;49.006;8.514;2023-12-29T05:09:20;5.67;;;4.97;;
7527;SDS011;3805;49.006;8.514;2023-12-29T05:11:49;5.43;;;5.03;;
7527;SDS011;3805;49.006;8.514;2023-12-29T05:14:17;5.20;;;4.80;;
7527;SDS011;3805;49.006;8.514;2023-12-29T05:16:45;6.60;;;5.87;;
7527;SDS011;3805;49.006;8.514;2023-12-29T05:19:15;5.73;;;5.33;;
7527;SDS011;3805;49.006;8.514;2023-12-29T05:21:43;5.67;;;5.23;;
7527;SDS011;3805;49.006;8.514;2023-12-29T05:24:11;5.40;;;5.00;;
7527;SDS011;3805;49.006;8.514;2023-12-29T05:26:40;6.93;;;6.33;;
7527;SDS011;3805;49.006;8.514;2023-12-29T05:29:08;6.53;;;5.93;;
7527;SDS011;3805;49.006;8.514;2023-12-29T05:31:36;5.83;;;5.37;;
7527;SDS011;3805;49.006;8.514;2023-12-29T05:34:04;8.50;;;4.83;;
7527;SDS011;3805;49.006;8.514;2023-12-29T05:36:36;6.80;;;6.10;;
7527;SDS011;3805;49.006;8.514;2023-12-29T05:39:05;13.90;;;10.63;;
7527;SDS011;3805;49.006;8.514;2023-12-29T05:41:34;9.83;;;8.80;;
7527;SDS011;3805;49.006;8.514;2023-12-29T05:44:02;6.10;;;5.53;;
7527;SDS011;3805;49.006;8.514;2023-12-29T05:46:31;9.20;;;7.40;;
7527;SDS011;3805;49.006;8.514;2023-12-29T05:48:59;8.40;;;7.60;;
7527;SDS011;3805;49.006;8.514;2023-12-29T05:51:28;6.83;;;6.23;;
7527;SDS011;3805;49.006;8.514;2023-12-29T05:53:57;6.23;;;5.73;;
7527;SDS011;3805;49.006;8.514;2023-12-29T05:56:26;7.10;;;5.40;;
7527;SDS011;3805;49.006;8.514;2023-12-29T05:58:54;5.63;;;5.13;;
7527;SDS011;3805;49.006;8.514;2023-12-29T06:01:22;4.53;;;4.23;;
7527;SDS011;3805;49.006;8.514;2023-12-29T06:03:51;5.27;;;4.87;;
7527;SDS011;3805;49.006;8.514;2023-12-29T06:06:19;5.43;;;4.93;;
7527;SDS011;3805;49.006;8.514;2023-12-29T06:08:47;5.57;;;5.17;;
7527;SDS011;3805;49.006;8.514;2023-12-29T06:11:17;6.17;;;5.57;;
7527;SDS011;3805;49.006;8.514;2023-12-29T06:13:46;5.40;;;4.87;;
7527;SDS011;3805;49.006;8.514;2023-12-29T06:16:18;5.83;;;5.33;;
7527;SDS011;3805;49.006;8.514;2023-12-29T06:18:47;7.73;;;6.37;;
7527;SDS011;3805;49.006;8.514;2023-12-29T06:21:16;6.73;;;6.13;;
7527;SDS011;3805;49.006;8.514;2023-12-29T06:23:44;5.80;;;5.30;;
7527;SDS011;3805;49.006;8.514;2023-12-29T06:26:13;6.17;;;5.50;;
7527;SDS011;3805;49.006;8.514;2023-12-29T06:28:44;5.90;;;5.00;;
7527;SDS011;3805;49.006;8.514;2023-12-29T06:31:13;6.10;;;5.27;;
7527;SDS011;3805;49.006;8.514;2023-12-29T06:33:42;8.23;;;5.83;;
7527;SDS011;3805;49.006;8.514;2023-12-29T06:36:28;6.60;;;6.00;;
7527;SDS011;3805;49.006;8.514;2023-12-29T06:38:57;6.13;;;5.60;;
7527;SDS011;3805;49.006;8.514;2023-12-29T06:41:25;7.67;;;5.70;;
7527;SDS011;3805;49.006;8.514;2023-12-29T06:43:55;9.60;;;8.37;;
7527;SDS011;3805;49.006;8.514;2023-12-29T06:46:23;8.00;;;7.13;;
7527;SDS011;3805;49.006;8.514;2023-12-29T06:48:52;14.73;;;8.30;;
7527;SDS011;3805;49.006;8.514;2023-12-29T06:51:20;6.20;;;5.70;;
7527;SDS011;3805;49.006;8.514;2023-12-29T06:53:50;7.50;;;6.90;;
7527;SDS011;3805;49.006;8.514;2023-12-29T06:56:18;5.80;;;5.30;;
7527;SDS011;3805;49.006;8.514;2023-12-29T06:58:47;5.97;;;5.47;;
7527;SDS011;3805;49.006;8.514;2023-12-29T07:01:16;4.73;;;4.33;;
7527;SDS011;3805;49.006;8.514;2023-12-29T07:03:45;5.40;;;4.90;;
7527;SDS011;3805;49.006;8.514;2023-12-29T07:06:13;6.63;;;4.80;;
7527;SDS011;3805;49.006;8.514;2023-12-29T07:08:42;5.97;;;5.50;;
7527;SDS011;3805;49.006;8.514;2023-12-29T07:11:10;5.03;;;4.63;;
7527;SDS011;3805;49.006;8.514;2023-12-29T07:13:39;5.70;;;5.30;;
7527;SDS011;3805;49.006;8.514;2023-12-29T07:16:07;5.43;;;5.03;;
7527;SDS011;3805;49.006;8.514;2023-12-29T07:18:37;5.30;;;4.90;;
7527;SDS011;3805;49.006;8.514;2023-12-29T07:21:06;7.77;;;6.07;;
7527;SDS011;3805;49.006;8.514;2023-12-29T07:23:35;4.73;;;4.30;;
7527;SDS011;3805;49.006;8.514;2023-12-29T07:26:03;5.03;;;4.63;;
7527;SDS011;3805;49.006;8.514;2023-12-29T07:28:32;5.23;;;4.73;;
7527;SDS011;3805;49.006;8.514;2023-12-29T07:31:01;4.77;;;4.37;;
7527;SDS011;3805;49.006;8.514;2023-12-29T07:33:30;5.63;;;4.70;;
7527;SDS011;3805;49.006;8.514;2023-12-29T07:36:00;4.40;;;4.00;;
7527;SDS011;3805;49.006;8.514;2023-12-29T07:38:28;4.30;;;4.00;;
7527;SDS011;3805;49.006;8.514;2023-12-29T07:40:57;4.80;;;4.40;;
7527;SDS011;3805;49.006;8.514;2023-12-29T07:43:25;4.77;;;4.37;;
7527;SDS011;3805;49.006;8.514;2023-12-29T07:45:54;6.73;;;4.93;;
7527;SDS011;3805;49.006;8.514;2023-12-29T07:48:22;5.07;;;4.67;;
7527;SDS011;3805;49.006;8.514;2023-12-29T07:50:51;5.40;;;4.90;;
7527;SDS011;3805;49.006;8.514;2023-12-29T07:53:21;5.83;;;4.23;;
7527;SDS011;3805;49.006;8.514;2023-12-29T07:55:49;4.73;;;4.43;;
7527;SDS011;3805;49.006;8.514;2023-12-29T07:58:19;4.20;;;3.90;;
7527;SDS011;3805;49.006;8.514;2023-12-29T08:00:47;4.97;;;4.47;;
7527;SDS011;3805;49.006;8.514;2023-12-29T08:03:16;4.67;;;4.10;;
7527;SDS011;3805;49.006;8.514;2023-12-29T08:05:44;5.50;;;5.10;;
7527;SDS011;3805;49.006;8.514;2023-12-29T08:08:13;4.93;;;4.40;;
7527;SDS011;3805;49.006;8.514;2023-12-29T08:10:43;5.33;;;4.83;;
7527;SDS011;3805;49.006;8.514;2023-12-29T08:13:11;4.47;;;4.10;;
7527;SDS011;3805;49.006;8.514;2023-12-29T08:15:40;5.30;;;4.80;;
7527;SDS011;3805;49.006;8.514;2023-12-29T08:18:27;5.10;;;4.70;;
7527;SDS011;3805;49.006;8.514;2023-12-29T08:20:56;5.40;;;4.97;;
7527;SDS011;3805;49.006;8.514;2023-12-29T08:23:26;5.13;;;4.70;;
7527;SDS011;3805;49.006;8.514;2023-12-29T08:25:55;5.53;;;5.03;;
7527;SDS011;3805;49.006;8.514;2023-12-29T08:28:24;5.93;;;5.07;;
7527;SDS011;3805;49.006;8.514;2023-12-29T08:30:53;4.87;;;4.37;;
7527;SDS011;3805;49.006;8.514;2023-12-29T08:33:21;5.07;;;4.67;;
7527;SDS011;3805;49.006;8.514;2023-12-29T08:35:51;4.77;;;4.37;;
7527;SDS011;3805;49.006;8.514;2023-12-29T08:38:19;5.07;;;4.67;;
7527;SDS011;3805;49.006;8.514;2023-12-29T08:40:48;7.50;;;4.40;;
7527;SDS011;3805;49.006;8.514;2023-12-29T08:43:16;5.10;;;4.70;;
7527;SDS011;3805;49.006;8.514;2023-12-29T08:45:48;5.63;;;5.13;;
7527;SDS011;3805;49.006;8.514;2023-12-29T08:48:16;5.00;;;4.70;;
7527;SDS011;3805;49.006;8.514;2023-12-29T08:50:45;5.00;;;4.60;;
7527;SDS011;3805;49.006;8.514;2023-12-29T08:53:17;6.30;;;3.97;;
7527;SDS011;3805;49.006;8.514;2023-12-29T08:55:45;6.53;;;5.93;;
7527;SDS011;3805;49.006;8.514;2023-12-29T08:58:13;4.83;;;4.40;;
7527;SDS011;3805;49.006;8.514;2023-12-29T09:00:41;5.00;;;4.50;;
7527;SDS011;3805;49.006;8.514;2023-12-29T09:03:10;4.60;;;4.20;;
7527;SDS011;3805;49.006;8.514;2023-12-29T09:05:38;5.27;;;4.50;;
7527;SDS011;3805;49.006;8.514;2023-12-29T09:08:07;4.20;;;3.90;;
7527;SDS011;3805;49.006;8.514;2023-12-29T09:10:36;4.40;;;4.00;;
7527;SDS011;3805;49.006;8.514;2023-12-29T09:13:05;4.30;;;3.90;;
7527;SDS011;3805;49.006;8.514;2023-12-29T09:15:34;4.10;;;3.80;;
7527;SDS011;3805;49.006;8.514;2023-12-29T09:18:02;6.50;;;5.83;;
7527;SDS011;3805;49.006;8.514;2023-12-29T09:20:31;5.40;;;4.90;;
7527;SDS011;3805;49.006;8.514;2023-12-29T09:23:00;6.03;;;5.30;;
7527;SDS011;3805;49.006;8.514;2023-12-29T09:25:30;5.87;;;5.20;;
7527;SDS011;3805;49.006;8.514;2023-12-29T09:28:00;4.80;;;4.40;;
7527;SDS011;3805;49.006;8.514;2023-12-29T09:30:29;4.30;;;3.90;;
7527;SDS011;3805;49.006;8.514;2023-12-29T09:32:57;3.90;;;3.60;;
7527;SDS011;3805;49.006;8.514;2023-12-29T09:35:25;4.40;;;4.00;;
7527;SDS011;3805;49.006;8.514;2023-12-29T09:37:54;4.40;;;4.10;;
7527;SDS011;3805;49.006;8.514;2023-12-29T09:40:22;3.90;;;3.60;;
7527;SDS011;3805;49.006;8.514;2023-12-29T09:42:51;3.90;;;3.70;;
7527;SDS011;3805;49.006;8.514;2023-12-29T09:45:22;3.90;;;3.60;;
7527;SDS011;3805;49.006;8.514;2023-12-29T09:47:51;3.83;;;3.53;;
7527;SDS011;3805;49.006;8.514;2023-12-29T09:50:21;3.80;;;3.50;;
7527;SDS011;3805;49.006;8.514;2023-12-29T09:52:49;3.53;;;3.23;;
7527;SDS011;3805;49.006;8.514;2023-12-29T09:55:18;3.90;;;3.60;;
7527;SDS011;3805;49.006;8.514;2023-12-29T09:57:47;3.30;;;3.10;;
7527;SDS011;3805;49.006;8.514;2023-12-29T10:00:16;3.30;;;3.10;;
7527;SDS011;3805;49.006;8.514;2023-12-29T10:02:47;3.90;;;3.60;;
7527;SDS011;3805;49.006;8.514;2023-12-29T10:05:18;6.73;;;3.00;;
7527;SDS011;3805;49.006;8.514;2023-12-29T10:07:46;2.90;;;2.70;;
7527;SDS011;3805;49.006;8.514;2023-12-29T10:10:15;3.83;;;3.53;;
7527;SDS011;3805;49.006;8.514;2023-12-29T10:12:47;3.73;;;3.37;;
7527;SDS011;3805;49.006;8.514;2023-12-29T10:15:17;3.53;;;3.23;;
7527;SDS011;3805;49.006;8.514;2023-12-29T10:17:51;3.70;;;3.40;;
7527;SDS011;3805;49.006;8.514;2023-12-29T10:20:23;3.73;;;3.40;;
7527;SDS011;3805;49.006;8.514;2023-12-29T10:22:59;4.87;;;3.07;;
7527;SDS011;3805;49.006;8.514;2023-12-29T10:25:34;3.13;;;2.93;;
7527;SDS011;3805;49.006;8.514;2023-12-29T10:28:03;3.73;;;3.43;;
7527;SDS011;3805;49.006;8.514;2023-12-29T10:30:32;3.43;;;3.23;;
7527;SDS011;3805;49.006;8.514;2023-12-29T10:33:03;4.10;;;3.80;;
7527;SDS011;3805;49.006;8.514;2023-12-29T10:35:34;3.13;;;2.93;;
7527;SDS011;3805;49.006;8.514;2023-12-29T10:38:10;3.20;;;3.00;;
7527;SDS011;3805;49.006;8.514;2023-12-29T10:40:40;3.37;;;3.17;;
7527;SDS011;3805;49.006;8.514;2023-12-29T10:43:09;2.90;;;2.70;;
7527;SDS011;3805;49.006;8.514;2023-12-29T10:45:38;3.90;;;3.60;;
7527;SDS011;3805;49.006;8.514;2023-12-29T10:48:08;4.97;;;3.27;;
7527;SDS011;3805;49.006;8.514;2023-12-29T10:50:45;3.30;;;3.00;;
7527;SDS011;3805;49.006;8.514;2023-12-29T10:53:13;3.90;;;3.60;;
7527;SDS011;3805;49.006;8.514;2023-12-29T10:55:43;3.23;;;3.00;;
7527;SDS011;3805;49.006;8.514;2023-12-29T10:58:12;3.13;;;2.50;;
7527;SDS011;3805;49.006;8.514;2023-12-29T11:00:43;3.63;;;3.33;;
7527;SDS011;3805;49.006;8.514;2023-12-29T11:03:14;2.70;;;2.50;;
7527;SDS011;3805;49.006;8.514;2023-12-29T11:05:43;4.77;;;2.40;;
7527;SDS011;3805;49.006;8.514;2023-12-29T11:08:14;2.47;;;2.27;;
7527;SDS011;3805;49.006;8.514;2023-12-29T11:10:43;3.50;;;3.13;;
7527;SDS011;3805;49.006;8.514;2023-12-29T11:13:12;8.93;;;2.43;;
7527;SDS011;3805;49.006;8.514;2023-12-29T11:15:46;2.10;;;2.00;;
7527;SDS011;3805;49.006;8.514;2023-12-29T11:18:16;2.97;;;2.77;;
7527;SDS011;3805;49.006;8.514;2023-12-29T11:20:45;2.90;;;2.47;;
7527;SDS011;3805;49.006;8.514;2023-12-29T11:23:14;2.73;;;1.87;;
7527;SDS011;3805;49.006;8.514;2023-12-29T11:25:43;3.20;;;2.70;;
7527;SDS011;3805;49.006;8.514;2023-12-29T11:28:12;2.63;;;2.43;;
7527;SDS011;3805;49.006;8.514;2023-12-29T11:30:41;2.77;;;2.57;;
7527;SDS011;3805;49.006;8.514;2023-12-29T11:33:12;5.23;;;2.43;;
7527;SDS011;3805;49.006;8.514;2023-12-29T11:35:44;2.60;;;2.40;;
7527;SDS011;3805;49.006;8.514;2023-12-29T11:38:23;2.57;;;2.37;;
7527;SDS011;3805;49.006;8.514;2023-12-29T11:40:57;6.47;;;5.77;;
7527;SDS011;3805;49.006;8.514;2023-12-29T11:43:29;2.50;;;2.30;;
7527;SDS011;3805;49.006;8.514;2023-12-29T11:45:57;2.40;;;2.20;;
7527;SDS011;3805;49.006;8.514;2023-12-29T11:51:34;2.83;;;2.60;;
7527;SDS011;3805;49.006;8.514;2023-12-29T11:54:03;3.03;;;2.83;;
7527;SDS011;3805;49.006;8.514;2023-12-29T11:56:36;3.03;;;2.83;;
7527;SDS011;3805;49.006;8.514;2023-12-29T11:59:14;2.70;;;2.50;;
7527;SDS011;3805;49.006;8.514;2023-12-29T12:01:43;2.70;;;2.50;;
7527;SDS011;3805;49.006;8.514;2023-12-29T12:07:15;3.33;;;3.13;;
7527;SDS011;3805;49.006;8.514;2023-12-29T12:09:45;2.73;;;2.53;;
7527;SDS011;3805;49.006;8.514;2023-12-29T12:18:02;3.00;;;2.80;;
7527;SDS011;3805;49.006;8.514;2023-12-29T12:20:33;2.67;;;2.40;;
7527;SDS011;3805;49.006;8.514;2023-12-29T12:23:04;3.13;;;2.93;;
7527;SDS011;3805;49.006;8.514;2023-12-29T12:25:38;3.13;;;2.87;;
7527;SDS011;3805;49.006;8.514;2023-12-29T12:28:08;2.80;;;2.60;;
7527;SDS011;3805;49.006;8.514;2023-12-29T12:30:37;3.80;;;2.63;;
7527;SDS011;3805;49.006;8.514;2023-12-29T12:33:05;4.67;;;2.80;;
7527;SDS011;3805;49.006;8.514;2023-12-29T12:35:38;4.40;;;3.10;;
7527;SDS011;3805;49.006;8.514;2023-12-29T12:38:08;3.87;;;3.67;;
7527;SDS011;3805;49.006;8.514;2023-12-29T12:40:37;2.97;;;2.77;;
7527;SDS011;3805;49.006;8.514;2023-12-29T12:43:06;3.10;;;2.80;;
7527;SDS011;3805;49.006;8.514;2023-12-29T12:45:35;2.50;;;2.30;;
7527;SDS011;3805;49.006;8.514;2023-12-29T12:48:12;3.50;;;3.30;;
7527;SDS011;3805;49.006;8.514;2023-12-29T12:50:42;7.00;;;2.80;;
7527;SDS011;3805;49.006;8.514;2023-12-29T12:53:13;3.20;;;2.80;;
7527;SDS011;3805;49.006;8.514;2023-12-29T12:55:47;3.50;;;2.90;;
7527;SDS011;3805;49.006;8.514;2023-12-29T12:58:16;2.93;;;2.73;;
7527;SDS011;3805;49.006;8.514;2023-12-29T13:00:45;2.90;;;2.70;;
7527;SDS011;3805;49.006;8.514;2023-12-29T13:03:18;2.77;;;2.57;;
7527;SDS011;3805;49.006;8.514;2023-12-29T13:05:47;3.73;;;2.73;;
7527;SDS011;3805;49.006;8.514;2023-12-29T13:08:17;3.60;;;3.40;;
7527;SDS011;3805;49.006;8.514;2023-12-29T13:11:00;3.23;;;2.87;;
7527;SDS011;3805;49.006;8.514;2023-12-29T13:13:35;3.10;;;2.80;;
7527;SDS011;3805;49.006;8.514;2023-12-29T13:16:04;3.83;;;3.50;;
7527;SDS011;3805;49.006;8.514;2023-12-29T13:18:33;7.70;;;3.30;;
7527;SDS011;3805;49.006;8.514;2023-12-29T13:21:02;3.40;;;3.10;;
7527;SDS011;3805;49.006;8.514;2023-12-29T13:23:32;3.50;;;3.20;;
7527;SDS011;3805;49.006;8.514;2023-12-29T13:26:01;3.50;;;3.27;;
7527;SDS011;3805;49.006;8.514;2023-12-29T13:28:32;2.97;;;2.73;;
7527;SDS011;3805;49.006;8.514;2023-12-29T13:31:03;2.47;;;2.27;;
7527;SDS011;3805;49.006;8.514;2023-12-29T13:33:33;2.63;;;2.43;;
7527;SDS011;3805;49.006;8.514;2023-12-29T13:36:07;3.50;;;3.20;;
7527;SDS011;3805;49.006;8.514;2023-12-29T13:38:39;3.10;;;2.47;;
7527;SDS011;3805;49.006;8.514;2023-12-29T13:41:11;3.50;;;3.20;;
7527;SDS011;3805;49.006;8.514;2023-12-29T13:43:40;3.07;;;2.87;;
7527;SDS011;3805;49.006;8.514;2023-12-29T13:46:10;2.80;;;2.60;;
7527;SDS011;3805;49.006;8.514;2023-12-29T13:48:39;4.10;;;2.83;;
7527;SDS011;3805;49.006;8.514;2023-12-29T13:51:08;2.77;;;2.50;;
7527;SDS011;3805;49.006;8.514;2023-12-29T13:53:38;2.97;;;2.77;;
7527;SDS011;3805;49.006;8.514;2023-12-29T13:56:06;2.40;;;2.20;;
7527;SDS011;3805;49.006;8.514;2023-12-29T13:58:35;2.47;;;2.30;;
7527;SDS011;3805;49.006;8.514;2023-12-29T14:01:06;2.30;;;2.20;;
7527;SDS011;3805;49.006;8.514;2023-12-29T14:03:38;2.80;;;2.60;;
7527;SDS011;3805;49.006;8.514;2023-12-29T14:06:19;2.40;;;2.30;;
7527;SDS011;3805;49.006;8.514;2023-12-29T14:08:49;2.40;;;2.20;;
7527;SDS011;3805;49.006;8.514;2023-12-29T14:11:17;2.40;;;2.20;;
7527;SDS011;3805;49.006;8.514;2023-12-29T14:13:46;2.23;;;2.13;;
7527;SDS011;3805;49.006;8.514;2023-12-29T14:16:15;2.20;;;2.00;;
7527;SDS011;3805;49.006;8.514;2023-12-29T14:18:53;2.60;;;2.40;;
7527;SDS011;3805;49.006;8.514;2023-12-29T14:21:23;2.30;;;2.20;;
7527;SDS011;3805;49.006;8.514;2023-12-29T14:24:00;2.00;;;1.90;;
7527;SDS011;3805;49.006;8.514;2023-12-29T14:26:35;2.60;;;2.40;;
7527;SDS011;3805;49.006;8.514;2023-12-29T14:29:04;2.00;;;1.90;;
7527;SDS011;3805;49.006;8.514;2023-12-29T14:31:36;2.93;;;2.73;;
7527;SDS011;3805;49.006;8.514;2023-12-29T14:34:06;2.43;;;2.27;;
7527;SDS011;3805;49.006;8.514;2023-12-29T14:36:35;2.10;;;2.00;;
7527;SDS011;3805;49.006;8.514;2023-12-29T14:39:06;2.57;;;2.37;;
7527;SDS011;3805;49.006;8.514;2023-12-29T14:41:36;2.73;;;2.53;;
7527;SDS011;3805;49.006;8.514;2023-12-29T14:44:05;3.53;;;2.80;;
7527;SDS011;3805;49.006;8.514;2023-12-29T14:46:33;3.20;;;3.00;;
7527;SDS011;3805;49.006;8.514;2023-12-29T14:49:03;2.20;;;2.10;;
7527;SDS011;3805;49.006;8.514;2023-12-29T14:51:32;2.53;;;2.33;;
7527;SDS011;3805;49.006;8.514;2023-12-29T14:54:00;2.50;;;2.40;;
7527;SDS011;3805;49.006;8.514;2023-12-29T14:56:32;2.77;;;2.57;;
7527;SDS011;3805;49.006;8.514;2023-12-29T14:59:00;2.50;;;2.27;;
7527;SDS011;3805;49.006;8.514;2023-12-29T15:01:32;4.07;;;2.67;;
7527;SDS011;3805;49.006;8.514;2023-12-29T15:04:01;2.23;;;2.03;;
7527;SDS011;3805;49.006;8.514;2023-12-29T15:06:31;2.60;;;2.40;;
7527;SDS011;3805;49.006;8.514;2023-12-29T15:08:59;2.80;;;2.60;;
7527;SDS011;3805;49.006;8.514;2023-12-29T15:11:27;2.40;;;2.20;;
7527;SDS011;3805;49.006;8.514;2023-12-29T15:13:57;2.13;;;2.03;;
7527;SDS011;3805;49.006;8.514;2023-12-29T15:16:25;3.03;;;2.83;;
7527;SDS011;3805;49.006;8.514;2023-12-29T15:18:53;2.70;;;2.50;;
7527;SDS011;3805;49.006;8.514;2023-12-29T15:21:22;3.80;;;3.50;;
7527;SDS011;3805;49.006;8.514;2023-12-29T15:23:50;2.63;;;2.40;;
7527;SDS011;3805;49.006;8.514;2023-12-29T15:26:18;2.80;;;2.60;;
7527;SDS011;3805;49.006;8.514;2023-12-29T15:28:46;2.57;;;2.37;;
7527;SDS011;3805;49.006;8.514;2023-12-29T15:31:16;2.07;;;1.90;;
7527;SDS011;3805;49.006;8.514;2023-12-29T15:33:45;2.57;;;2.37;;
7527;SDS011;3805;49.006;8.514;2023-12-29T15:36:14;2.60;;;2.40;;
7527;SDS011;3805;49.006;8.514;2023-12-29T15:38:47;3.67;;;2.83;;
7527;SDS011;3805;49.006;8.514;2023-12-29T15:41:15;3.67;;;2.80;;